sensor_id;sensor_type;location;lat;lon;timestamp;temperature;humidity
47514;DHT22;33951;51.988;5.910;2022-12-13T00:00:26;-1.20;99.90
47514;DHT22;33951;51.988;5.910;2022-12-13T00:02:51;-1.20;99.90
47514;DHT22;33951;51.988;5.910;2022-12-13T00:05:17;-1.30;99.90
47514;DHT22;33951;51.988;5.910;2022-12-13T00:07:43;-1.40;99.90
47514;DHT22;33951;51.988;5.910;2022-12-13T00:10:11;-1.30;99.90
47514;DHT22;33951;51.988;5.910;2022-12-13T00:12:37;-1.20;99.90
47514;DHT22;33951;51.988;5.910;2022-12-13T00:15:03;-1.30;99.90
47514;DHT22;33951;51.988;5.910;2022-12-13T00:17:31;-1.30;99.90
47514;DHT22;33951;51.988;5.910;2022-12-13T00:19:56;-1.30;99.90
47514;DHT22;33951;51.988;5.910;2022-12-13T00:22:22;-1.20;99.90
47514;DHT22;33951;51.988;5.910;2022-12-13T00:24:47;-1.20;99.90
47514;DHT22;33951;51.988;5.910;2022-12-13T00:27:13;-1.20;99.90
47514;DHT22;33951;51.988;5.910;2022-12-13T00:29:39;-1.20;99.90
47514;DHT22;33951;51.988;5.910;2022-12-13T00:32:04;-1.20;99.90
47514;DHT22;33951;51.988;5.910;2022-12-13T00:34:30;-1.30;99.90
47514;DHT22;33951;51.988;5.910;2022-12-13T00:36:58;-1.20;99.90
47514;DHT22;33951;51.988;5.910;2022-12-13T00:39:26;-1.30;99.90
47514;DHT22;33951;51.988;5.910;2022-12-13T00:41:52;-1.30;99.90
47514;DHT22;33951;51.988;5.910;2022-12-13T00:44:18;-1.30;99.90
47514;DHT22;33951;51.988;5.910;2022-12-13T00:56:29;-1.30;99.90
47514;DHT22;33951;51.988;5.910;2022-12-13T05:45:19;-2.40;99.90
47514;DHT22;33951;51.988;5.910;2022-12-13T05:52:22;-2.40;99.90
47514;DHT22;33951;51.988;5.910;2022-12-13T05:55:25;-2.40;99.90
47514;DHT22;33951;51.988;5.910;2022-12-13T05:58:20;-2.50;99.90
47514;DHT22;33951;51.988;5.910;2022-12-13T06:00:46;-2.40;99.90
47514;DHT22;33951;51.988;5.910;2022-12-13T06:03:12;-2.50;99.90
47514;DHT22;33951;51.988;5.910;2022-12-13T06:05:38;-2.50;99.90
47514;DHT22;33951;51.988;5.910;2022-12-13T06:08:03;-2.50;99.90
47514;DHT22;33951;51.988;5.910;2022-12-13T06:10:29;-2.50;99.90
47514;DHT22;33951;51.988;5.910;2022-12-13T06:12:54;-2.50;99.90
47514;DHT22;33951;51.988;5.910;2022-12-13T06:15:20;-2.50;99.90
47514;DHT22;33951;51.988;5.910;2022-12-13T06:17:49;-2.50;99.90
47514;DHT22;33951;51.988;5.910;2022-12-13T06:20:14;-2.50;99.90
47514;DHT22;33951;51.988;5.910;2022-12-13T06:22:40;-2.40;99.90
47514;DHT22;33951;51.988;5.910;2022-12-13T06:25:06;-2.50;99.90
47514;DHT22;33951;51.988;5.910;2022-12-13T06:27:31;-2.50;99.90
47514;DHT22;33951;51.988;5.910;2022-12-13T06:29:57;-2.50;99.90
47514;DHT22;33951;51.988;5.910;2022-12-13T06:32:23;-2.50;99.90
47514;DHT22;33951;51.988;5.910;2022-12-13T06:34:49;-2.50;99.90
47514;DHT22;33951;51.988;5.910;2022-12-13T06:37:14;-2.50;99.90
47514;DHT22;33951;51.988;5.910;2022-12-13T06:39:40;-2.50;99.90
47514;DHT22;33951;51.988;5.910;2022-12-13T06:42:13;-2.60;99.90
47514;DHT22;33951;51.988;5.910;2022-12-13T06:44:40;-2.60;99.90
47514;DHT22;33951;51.988;5.910;2022-12-13T06:47:06;-2.60;99.90
47514;DHT22;33951;51.988;5.910;2022-12-13T06:49:32;-2.60;99.90
47514;DHT22;33951;51.988;5.910;2022-12-13T06:51:58;-2.60;99.90
47514;DHT22;33951;51.988;5.910;2022-12-13T06:54:24;-2.60;99.90
47514;DHT22;33951;51.988;5.910;2022-12-13T06:56:49;-2.60;99.90
47514;DHT22;33951;51.988;5.910;2022-12-13T06:59:15;-2.60;99.90
47514;DHT22;33951;51.988;5.910;2022-12-13T07:01:41;-2.70;99.90
47514;DHT22;33951;51.988;5.910;2022-12-13T07:04:08;-2.60;99.90
47514;DHT22;33951;51.988;5.910;2022-12-13T07:06:35;-2.60;99.90
47514;DHT22;33951;51.988;5.910;2022-12-13T07:09:01;-2.60;99.90
47514;DHT22;33951;51.988;5.910;2022-12-13T07:11:29;-2.60;99.90
47514;DHT22;33951;51.988;5.910;2022-12-13T07:13:55;-2.60;99.90
47514;DHT22;33951;51.988;5.910;2022-12-13T07:16:22;-2.60;99.90
47514;DHT22;33951;51.988;5.910;2022-12-13T07:18:56;-2.60;99.90
47514;DHT22;33951;51.988;5.910;2022-12-13T07:21:22;-2.60;99.90
47514;DHT22;33951;51.988;5.910;2022-12-13T07:23:48;-2.60;99.90
47514;DHT22;33951;51.988;5.910;2022-12-13T07:26:15;-2.60;99.90
47514;DHT22;33951;51.988;5.910;2022-12-13T07:28:44;-2.60;99.90
47514;DHT22;33951;51.988;5.910;2022-12-13T07:31:10;-2.60;99.90
47514;DHT22;33951;51.988;5.910;2022-12-13T07:33:37;-2.60;99.90
47514;DHT22;33951;51.988;5.910;2022-12-13T07:36:23;-2.60;99.90
47514;DHT22;33951;51.988;5.910;2022-12-13T07:38:54;-2.60;99.90
47514;DHT22;33951;51.988;5.910;2022-12-13T07:41:24;-2.60;99.90
47514;DHT22;33951;51.988;5.910;2022-12-13T07:43:53;-2.70;99.90
47514;DHT22;33951;51.988;5.910;2022-12-13T07:46:19;-2.70;99.90
47514;DHT22;33951;51.988;5.910;2022-12-13T07:48:44;-2.60;99.90
47514;DHT22;33951;51.988;5.910;2022-12-13T07:51:10;-2.60;99.90
47514;DHT22;33951;51.988;5.910;2022-12-13T07:53:37;-2.60;99.90
47514;DHT22;33951;51.988;5.910;2022-12-13T07:56:05;-2.60;99.90
47514;DHT22;33951;51.988;5.910;2022-12-13T07:58:31;-2.60;99.90
47514;DHT22;33951;51.988;5.910;2022-12-13T08:01:07;-2.60;99.90
47514;DHT22;33951;51.988;5.910;2022-12-13T08:03:34;-2.60;99.90
47514;DHT22;33951;51.988;5.910;2022-12-13T08:06:06;-2.60;99.90
47514;DHT22;33951;51.988;5.910;2022-12-13T08:08:34;-2.50;99.90
47514;DHT22;33951;51.988;5.910;2022-12-13T08:11:11;-2.60;99.90
47514;DHT22;33951;51.988;5.910;2022-12-13T08:13:38;-2.50;99.90
47514;DHT22;33951;51.988;5.910;2022-12-13T08:16:06;-2.60;99.90
47514;DHT22;33951;51.988;5.910;2022-12-13T08:18:32;-2.60;99.90
47514;DHT22;33951;51.988;5.910;2022-12-13T08:21:03;-2.60;99.90
47514;DHT22;33951;51.988;5.910;2022-12-13T08:23:31;-2.50;99.90
47514;DHT22;33951;51.988;5.910;2022-12-13T08:26:01;-2.50;99.90
47514;DHT22;33951;51.988;5.910;2022-12-13T08:28:29;-2.50;99.90
47514;DHT22;33951;51.988;5.910;2022-12-13T08:30:54;-2.40;99.90
47514;DHT22;33951;51.988;5.910;2022-12-13T08:33:20;-2.50;99.90
47514;DHT22;33951;51.988;5.910;2022-12-13T08:35:47;-2.40;99.90
47514;DHT22;33951;51.988;5.910;2022-12-13T08:38:13;-2.40;99.90
47514;DHT22;33951;51.988;5.910;2022-12-13T08:40:39;-2.30;99.90
47514;DHT22;33951;51.988;5.910;2022-12-13T08:43:05;-2.30;99.90
47514;DHT22;33951;51.988;5.910;2022-12-13T08:45:30;-2.40;99.90
47514;DHT22;33951;51.988;5.910;2022-12-13T08:48:01;-2.40;99.90
47514;DHT22;33951;51.988;5.910;2022-12-13T08:50:28;-2.40;99.90
47514;DHT22;33951;51.988;5.910;2022-12-13T08:52:54;-2.20;99.90
47514;DHT22;33951;51.988;5.910;2022-12-13T08:55:23;-2.10;99.90
47514;DHT22;33951;51.988;5.910;2022-12-13T08:57:48;-2.00;99.90
47514;DHT22;33951;51.988;5.910;2022-12-13T09:00:17;-2.00;99.90
47514;DHT22;33951;51.988;5.910;2022-12-13T09:02:43;-2.10;99.90
47514;DHT22;33951;51.988;5.910;2022-12-13T09:05:10;-2.10;99.90
47514;DHT22;33951;51.988;5.910;2022-12-13T09:07:37;-2.00;99.90
47514;DHT22;33951;51.988;5.910;2022-12-13T09:10:06;-1.90;99.90
47514;DHT22;33951;51.988;5.910;2022-12-13T09:12:32;-1.90;99.90
47514;DHT22;33951;51.988;5.910;2022-12-13T09:14:58;-1.90;99.90
47514;DHT22;33951;51.988;5.910;2022-12-13T09:17:24;-1.90;99.90
47514;DHT22;33951;51.988;5.910;2022-12-13T09:19:49;-1.80;99.90
47514;DHT22;33951;51.988;5.910;2022-12-13T09:22:15;-1.70;99.90
47514;DHT22;33951;51.988;5.910;2022-12-13T09:24:41;-1.70;99.90
47514;DHT22;33951;51.988;5.910;2022-12-13T09:27:07;-1.70;99.90
47514;DHT22;33951;51.988;5.910;2022-12-13T09:29:35;-1.80;99.90
47514;DHT22;33951;51.988;5.910;2022-12-13T09:32:01;-1.90;99.90
47514;DHT22;33951;51.988;5.910;2022-12-13T09:34:26;-1.70;99.90
47514;DHT22;33951;51.988;5.910;2022-12-13T09:36:52;-1.70;99.90
47514;DHT22;33951;51.988;5.910;2022-12-13T09:39:20;-1.70;99.90
47514;DHT22;33951;51.988;5.910;2022-12-13T09:41:52;-1.60;99.90
47514;DHT22;33951;51.988;5.910;2022-12-13T09:44:37;-1.60;99.90
47514;DHT22;33951;51.988;5.910;2022-12-13T09:47:06;-1.70;99.90
47514;DHT22;33951;51.988;5.910;2022-12-13T09:49:35;-1.70;99.90
47514;DHT22;33951;51.988;5.910;2022-12-13T09:52:04;-1.60;99.90
47514;DHT22;33951;51.988;5.910;2022-12-13T09:54:33;-1.60;99.90
47514;DHT22;33951;51.988;5.910;2022-12-13T09:56:59;-1.70;99.90
47514;DHT22;33951;51.988;5.910;2022-12-13T09:59:30;-1.40;99.90
47514;DHT22;33951;51.988;5.910;2022-12-13T10:02:02;-1.40;99.90
47514;DHT22;33951;51.988;5.910;2022-12-13T10:04:37;-1.30;99.90
47514;DHT22;33951;51.988;5.910;2022-12-13T10:07:09;-1.40;99.90
47514;DHT22;33951;51.988;5.910;2022-12-13T10:09:38;-1.40;99.90
47514;DHT22;33951;51.988;5.910;2022-12-13T10:12:04;-1.30;99.90
47514;DHT22;33951;51.988;5.910;2022-12-13T10:14:34;-1.20;99.90
47514;DHT22;33951;51.988;5.910;2022-12-13T10:17:07;-1.10;99.90
47514;DHT22;33951;51.988;5.910;2022-12-13T10:19:39;-1.10;99.90
47514;DHT22;33951;51.988;5.910;2022-12-13T10:22:09;-1.00;99.90
47514;DHT22;33951;51.988;5.910;2022-12-13T10:24:55;-1.00;99.90
47514;DHT22;33951;51.988;5.910;2022-12-13T10:27:37;-0.90;99.90
47514;DHT22;33951;51.988;5.910;2022-12-13T10:32:40;-0.80;99.90
47514;DHT22;33951;51.988;5.910;2022-12-13T10:35:25;-0.70;99.90
47514;DHT22;33951;51.988;5.910;2022-12-13T10:37:56;-0.50;99.90
47514;DHT22;33951;51.988;5.910;2022-12-13T10:43:10;-0.30;99.90
47514;DHT22;33951;51.988;5.910;2022-12-13T10:45:36;-0.20;99.90
47514;DHT22;33951;51.988;5.910;2022-12-13T10:48:03;-0.10;99.90
47514;DHT22;33951;51.988;5.910;2022-12-13T10:50:34;0.00;99.90
47514;DHT22;33951;51.988;5.910;2022-12-13T10:53:01;0.10;99.90
47514;DHT22;33951;51.988;5.910;2022-12-13T10:55:34;0.10;99.90
47514;DHT22;33951;51.988;5.910;2022-12-13T10:58:05;0.20;99.90
47514;DHT22;33951;51.988;5.910;2022-12-13T11:00:44;0.40;99.90
47514;DHT22;33951;51.988;5.910;2022-12-13T11:03:31;0.50;99.90
47514;DHT22;33951;51.988;5.910;2022-12-13T11:06:19;0.60;99.90
47514;DHT22;33951;51.988;5.910;2022-12-13T11:08:44;0.70;99.90
47514;DHT22;33951;51.988;5.910;2022-12-13T11:11:10;0.70;99.90
47514;DHT22;33951;51.988;5.910;2022-12-13T11:13:53;0.90;99.90
47514;DHT22;33951;51.988;5.910;2022-12-13T11:16:48;0.90;99.90
47514;DHT22;33951;51.988;5.910;2022-12-13T11:19:19;1.00;99.90
47514;DHT22;33951;51.988;5.910;2022-12-13T11:21:48;1.00;99.90
47514;DHT22;33951;51.988;5.910;2022-12-13T11:24:23;1.30;99.90
47514;DHT22;33951;51.988;5.910;2022-12-13T11:27:01;1.40;99.90
47514;DHT22;33951;51.988;5.910;2022-12-13T11:41:11;1.80;99.90
47514;DHT22;33951;51.988;5.910;2022-12-13T11:43:49;1.80;99.90
47514;DHT22;33951;51.988;5.910;2022-12-13T11:46:24;1.90;99.90
47514;DHT22;33951;51.988;5.910;2022-12-13T11:48:56;1.80;99.90
47514;DHT22;33951;51.988;5.910;2022-12-13T11:51:28;1.80;99.90
47514;DHT22;33951;51.988;5.910;2022-12-13T11:54:03;1.80;99.90
47514;DHT22;33951;51.988;5.910;2022-12-13T11:56:40;1.90;99.90
47514;DHT22;33951;51.988;5.910;2022-12-13T12:02:01;1.90;99.90
47514;DHT22;33951;51.988;5.910;2022-12-13T12:04:49;1.90;99.90
47514;DHT22;33951;51.988;5.910;2022-12-13T12:07:23;1.90;99.90
47514;DHT22;33951;51.988;5.910;2022-12-13T12:13:27;2.00;99.90
47514;DHT22;33951;51.988;5.910;2022-12-13T12:18:23;2.10;99.90
47514;DHT22;33951;51.988;5.910;2022-12-13T12:24:09;2.00;99.90
47514;DHT22;33951;51.988;5.910;2022-12-13T12:26:48;2.00;99.90
47514;DHT22;33951;51.988;5.910;2022-12-13T12:29:21;1.90;99.90
47514;DHT22;33951;51.988;5.910;2022-12-13T12:32:09;1.90;99.90
47514;DHT22;33951;51.988;5.910;2022-12-13T12:43:31;1.80;99.90
47514;DHT22;33951;51.988;5.910;2022-12-13T12:48:43;1.80;99.90
47514;DHT22;33951;51.988;5.910;2022-12-13T12:54:29;1.60;99.90
47514;DHT22;33951;51.988;5.910;2022-12-13T13:00:12;1.40;99.90
47514;DHT22;33951;51.988;5.910;2022-12-13T13:05:58;1.50;99.90
47514;DHT22;33951;51.988;5.910;2022-12-13T13:11:06;1.50;99.90
47514;DHT22;33951;51.988;5.910;2022-12-13T13:13:45;1.50;99.90
47514;DHT22;33951;51.988;5.910;2022-12-13T13:18:53;1.80;99.90
47514;DHT22;33951;51.988;5.910;2022-12-13T13:24:04;1.90;99.90
47514;DHT22;33951;51.988;5.910;2022-12-13T13:26:31;1.80;99.90
47514;DHT22;33951;51.988;5.910;2022-12-13T13:34:45;1.80;99.90
47514;DHT22;33951;51.988;5.910;2022-12-13T13:40:34;2.00;99.90
47514;DHT22;33951;51.988;5.910;2022-12-13T13:57:59;1.60;99.90
47514;DHT22;33951;51.988;5.910;2022-12-13T14:21:24;1.10;99.90
47514;DHT22;33951;51.988;5.910;2022-12-13T14:29:44;1.00;99.90
47514;DHT22;33951;51.988;5.910;2022-12-13T14:32:24;0.90;99.90
47514;DHT22;33951;51.988;5.910;2022-12-13T14:34:50;0.90;99.90
47514;DHT22;33951;51.988;5.910;2022-12-13T14:37:30;0.80;99.90
47514;DHT22;33951;51.988;5.910;2022-12-13T14:39:58;0.80;99.90
47514;DHT22;33951;51.988;5.910;2022-12-13T14:42:29;0.80;99.90
47514;DHT22;33951;51.988;5.910;2022-12-13T14:45:14;0.80;99.90
47514;DHT22;33951;51.988;5.910;2022-12-13T14:47:42;0.70;99.90
47514;DHT22;33951;51.988;5.910;2022-12-13T14:50:08;0.70;99.90
47514;DHT22;33951;51.988;5.910;2022-12-13T14:52:38;0.70;99.90
47514;DHT22;33951;51.988;5.910;2022-12-13T14:55:19;0.70;99.90
47514;DHT22;33951;51.988;5.910;2022-12-13T14:57:52;0.60;99.90
47514;DHT22;33951;51.988;5.910;2022-12-13T15:00:48;0.50;99.90
47514;DHT22;33951;51.988;5.910;2022-12-13T15:03:34;0.50;99.90
47514;DHT22;33951;51.988;5.910;2022-12-13T15:06:07;0.60;99.90
47514;DHT22;33951;51.988;5.910;2022-12-13T15:08:39;0.70;99.90
47514;DHT22;33951;51.988;5.910;2022-12-13T15:11:09;0.70;99.90
47514;DHT22;33951;51.988;5.910;2022-12-13T15:13:42;0.60;99.90
47514;DHT22;33951;51.988;5.910;2022-12-13T15:16:23;0.60;99.90
47514;DHT22;33951;51.988;5.910;2022-12-13T15:21:38;0.60;99.90
47514;DHT22;33951;51.988;5.910;2022-12-13T15:24:12;0.50;99.90
47514;DHT22;33951;51.988;5.910;2022-12-13T15:26:43;0.40;99.90
47514;DHT22;33951;51.988;5.910;2022-12-13T15:29:24;0.20;99.90
47514;DHT22;33951;51.988;5.910;2022-12-13T15:32:03;0.20;99.90
47514;DHT22;33951;51.988;5.910;2022-12-13T15:34:34;0.20;99.90
47514;DHT22;33951;51.988;5.910;2022-12-13T15:37:16;0.20;99.90
47514;DHT22;33951;51.988;5.910;2022-12-13T15:39:47;0.10;99.90
47514;DHT22;33951;51.988;5.910;2022-12-13T15:42:21;0.10;99.90
47514;DHT22;33951;51.988;5.910;2022-12-13T15:44:50;0.10;99.90
47514;DHT22;33951;51.988;5.910;2022-12-13T15:47:27;0.10;99.90
47514;DHT22;33951;51.988;5.910;2022-12-13T15:50:02;0.00;99.90
47514;DHT22;33951;51.988;5.910;2022-12-13T15:52:37;0.00;99.90
47514;DHT22;33951;51.988;5.910;2022-12-13T15:55:23;0.00;99.90
47514;DHT22;33951;51.988;5.910;2022-12-13T15:57:50;-0.10;99.90
47514;DHT22;33951;51.988;5.910;2022-12-13T16:05:25;-0.20;99.90
47514;DHT22;33951;51.988;5.910;2022-12-13T16:07:51;-0.10;99.90
47514;DHT22;33951;51.988;5.910;2022-12-13T16:10:18;-0.20;99.90
47514;DHT22;33951;51.988;5.910;2022-12-13T16:13:15;-0.20;99.90
47514;DHT22;33951;51.988;5.910;2022-12-13T16:15:48;-0.20;99.90
47514;DHT22;33951;51.988;5.910;2022-12-13T16:18:29;-0.30;99.90
47514;DHT22;33951;51.988;5.910;2022-12-13T16:21:02;-0.40;99.90
47514;DHT22;33951;51.988;5.910;2022-12-13T16:23:28;-0.20;99.90
47514;DHT22;33951;51.988;5.910;2022-12-13T16:25:54;-0.40;99.90
47514;DHT22;33951;51.988;5.910;2022-12-13T16:28:28;-0.40;99.90
47514;DHT22;33951;51.988;5.910;2022-12-13T16:31:03;-0.30;99.90
47514;DHT22;33951;51.988;5.910;2022-12-13T16:33:36;-0.40;99.90
47514;DHT22;33951;51.988;5.910;2022-12-13T16:36:07;-0.40;99.90
47514;DHT22;33951;51.988;5.910;2022-12-13T16:38:39;-0.40;99.90
47514;DHT22;33951;51.988;5.910;2022-12-13T16:41:07;-0.50;99.90
47514;DHT22;33951;51.988;5.910;2022-12-13T16:43:39;-0.50;99.90
47514;DHT22;33951;51.988;5.910;2022-12-13T16:46:10;-0.40;99.90
47514;DHT22;33951;51.988;5.910;2022-12-13T16:48:36;-0.40;99.90
47514;DHT22;33951;51.988;5.910;2022-12-13T16:51:02;-0.40;99.90
47514;DHT22;33951;51.988;5.910;2022-12-13T16:53:30;-0.50;99.90
47514;DHT22;33951;51.988;5.910;2022-12-13T16:55:57;-0.50;99.90
47514;DHT22;33951;51.988;5.910;2022-12-13T16:58:23;-0.60;99.90
47514;DHT22;33951;51.988;5.910;2022-12-13T17:00:50;-0.60;99.90
47514;DHT22;33951;51.988;5.910;2022-12-13T17:03:16;-0.60;99.90
47514;DHT22;33951;51.988;5.910;2022-12-13T17:05:43;-0.70;99.90
47514;DHT22;33951;51.988;5.910;2022-12-13T17:08:11;-0.70;99.90
47514;DHT22;33951;51.988;5.910;2022-12-13T17:10:38;-0.70;99.90
47514;DHT22;33951;51.988;5.910;2022-12-13T17:13:04;-0.70;99.90
47514;DHT22;33951;51.988;5.910;2022-12-13T17:15:31;-0.80;99.90
47514;DHT22;33951;51.988;5.910;2022-12-13T17:17:57;-0.80;99.90
47514;DHT22;33951;51.988;5.910;2022-12-13T17:20:23;-0.80;99.90
47514;DHT22;33951;51.988;5.910;2022-12-13T17:22:52;-0.80;99.90
47514;DHT22;33951;51.988;5.910;2022-12-13T17:25:28;-0.80;99.90
47514;DHT22;33951;51.988;5.910;2022-12-13T17:31:23;-0.80;99.90
47514;DHT22;33951;51.988;5.910;2022-12-13T17:34:12;-1.00;99.90
47514;DHT22;33951;51.988;5.910;2022-12-13T17:36:43;-1.00;99.90
47514;DHT22;33951;51.988;5.910;2022-12-13T17:39:11;-0.80;99.90
47514;DHT22;33951;51.988;5.910;2022-12-13T17:41:40;-0.90;99.90
47514;DHT22;33951;51.988;5.910;2022-12-13T17:44:09;-0.90;99.90
47514;DHT22;33951;51.988;5.910;2022-12-13T17:46:37;-1.00;99.90
47514;DHT22;33951;51.988;5.910;2022-12-13T17:49:06;-0.90;99.90
47514;DHT22;33951;51.988;5.910;2022-12-13T17:51:31;-0.90;99.90
47514;DHT22;33951;51.988;5.910;2022-12-13T17:54:03;-0.80;99.90
47514;DHT22;33951;51.988;5.910;2022-12-13T17:56:31;-0.80;99.90
47514;DHT22;33951;51.988;5.910;2022-12-13T18:15:41;-0.80;99.90
47514;DHT22;33951;51.988;5.910;2022-12-13T18:32:46;-0.60;99.90
47514;DHT22;33951;51.988;5.910;2022-12-13T18:39:14;-0.70;99.90
47514;DHT22;33951;51.988;5.910;2022-12-13T18:53:04;-0.70;99.90
47514;DHT22;33951;51.988;5.910;2022-12-13T19:47:38;-0.70;99.90
47514;DHT22;33951;51.988;5.910;2022-12-13T20:04:05;-0.80;99.90
47514;DHT22;33951;51.988;5.910;2022-12-13T20:10:18;-0.70;99.90
47514;DHT22;33951;51.988;5.910;2022-12-13T20:17:15;-0.70;99.90
47514;DHT22;33951;51.988;5.910;2022-12-13T20:27:38;-0.80;99.90
47514;DHT22;33951;51.988;5.910;2022-12-13T20:30:28;-0.80;99.90
47514;DHT22;33951;51.988;5.910;2022-12-13T20:33:23;-0.90;99.90
47514;DHT22;33951;51.988;5.910;2022-12-13T20:36:35;-0.90;99.90
47514;DHT22;33951;51.988;5.910;2022-12-13T20:57:07;-1.10;99.90
47514;DHT22;33951;51.988;5.910;2022-12-13T21:10:32;-1.00;99.90
47514;DHT22;33951;51.988;5.910;2022-12-13T21:17:35;-1.20;99.90
47514;DHT22;33951;51.988;5.910;2022-12-13T21:20:56;-1.00;99.90
47514;DHT22;33951;51.988;5.910;2022-12-13T21:34:42;-0.90;99.90
47514;DHT22;33951;51.988;5.910;2022-12-13T22:49:20;-0.70;99.90
47514;DHT22;33951;51.988;5.910;2022-12-13T22:58:44;-0.80;99.90
47514;DHT22;33951;51.988;5.910;2022-12-13T23:01:18;-0.90;99.90
47514;DHT22;33951;51.988;5.910;2022-12-13T23:03:45;-0.80;99.90
47514;DHT22;33951;51.988;5.910;2022-12-13T23:06:22;-0.70;99.90
47514;DHT22;33951;51.988;5.910;2022-12-13T23:09:05;-0.70;99.90
47514;DHT22;33951;51.988;5.910;2022-12-13T23:11:36;-0.70;99.90
47514;DHT22;33951;51.988;5.910;2022-12-13T23:14:31;-0.70;99.90
47514;DHT22;33951;51.988;5.910;2022-12-13T23:16:58;-0.70;99.90
47514;DHT22;33951;51.988;5.910;2022-12-13T23:19:24;-0.70;99.90
47514;DHT22;33951;51.988;5.910;2022-12-13T23:21:50;-0.70;99.90
47514;DHT22;33951;51.988;5.910;2022-12-13T23:24:15;-0.70;99.90
47514;DHT22;33951;51.988;5.910;2022-12-13T23:26:41;-0.60;99.90
47514;DHT22;33951;51.988;5.910;2022-12-13T23:29:09;-0.60;99.90
47514;DHT22;33951;51.988;5.910;2022-12-13T23:31:40;-0.70;99.90
47514;DHT22;33951;51.988;5.910;2022-12-13T23:34:09;-0.80;99.90
47514;DHT22;33951;51.988;5.910;2022-12-13T23:36:38;-0.80;99.90
47514;DHT22;33951;51.988;5.910;2022-12-13T23:39:05;-0.90;99.90
47514;DHT22;33951;51.988;5.910;2022-12-13T23:41:31;-0.70;99.90
47514;DHT22;33951;51.988;5.910;2022-12-13T23:44:00;-0.70;99.90
47514;DHT22;33951;51.988;5.910;2022-12-13T23:46:29;-0.70;99.90
47514;DHT22;33951;51.988;5.910;2022-12-13T23:49:03;-0.70;99.90
47514;DHT22;33951;51.988;5.910;2022-12-13T23:51:32;-0.80;99.90
47514;DHT22;33951;51.988;5.910;2022-12-13T23:54:02;-0.70;99.90
47514;DHT22;33951;51.988;5.910;2022-12-13T23:57:20;-0.70;99.90
47514;DHT22;33951;51.988;5.910;2022-12-13T23:59:46;-0.70;99.90
